createdAt,value
2023-12-09T00:01:42.789Z,4.23
2023-12-09T00:04:10.055Z,4.23
2023-12-09T00:06:37.171Z,4.23
2023-12-09T00:09:04.666Z,4.20
2023-12-09T00:11:31.405Z,4.17
2023-12-09T00:14:04.845Z,4.15
2023-12-09T00:16:32.090Z,4.04
2023-12-09T00:19:00.742Z,4.02
2023-12-09T00:21:28.237Z,4.03
2023-12-09T00:23:54.880Z,4.02
2023-12-09T00:26:21.522Z,4.02
2023-12-09T00:28:48.105Z,3.96
2023-12-09T00:31:14.727Z,3.84
2023-12-09T00:33:42.015Z,3.83
2023-12-09T00:36:09.192Z,3.85
2023-12-09T00:38:35.845Z,3.84
2023-12-09T00:41:02.618Z,3.80
2023-12-09T00:43:29.214Z,3.77
2023-12-09T00:45:55.742Z,3.77
2023-12-09T00:48:22.473Z,3.80
2023-12-09T00:50:49.202Z,3.77
2023-12-09T00:53:15.831Z,3.76
2023-12-09T00:55:42.424Z,3.75
2023-12-09T00:58:08.950Z,3.75
2023-12-09T01:00:35.597Z,3.68
2023-12-09T01:03:02.322Z,3.66
2023-12-09T01:05:28.951Z,3.67
2023-12-09T01:07:55.532Z,3.65
2023-12-09T01:10:22.100Z,3.67
2023-12-09T01:12:48.743Z,3.69
2023-12-09T01:15:16.464Z,3.66
2023-12-09T01:17:43.031Z,3.62
2023-12-09T01:20:10.282Z,3.63
2023-12-09T01:22:36.817Z,3.66
2023-12-09T01:25:03.770Z,3.72
2023-12-09T01:27:30.399Z,3.73
2023-12-09T01:29:57.001Z,3.75
2023-12-09T01:32:23.616Z,3.76
2023-12-09T01:34:50.258Z,3.73
2023-12-09T01:37:16.834Z,3.72
2023-12-09T01:39:43.468Z,3.72
2023-12-09T01:42:10.860Z,3.73
2023-12-09T01:44:37.499Z,3.74
2023-12-09T01:47:04.628Z,3.73
2023-12-09T01:49:31.694Z,3.73
2023-12-09T01:52:00.485Z,3.73
2023-12-09T01:54:28.434Z,3.73
2023-12-09T01:56:57.222Z,3.73
2023-12-09T01:59:24.326Z,3.73
2023-12-09T02:01:53.008Z,3.75
2023-12-09T02:04:20.964Z,3.77
2023-12-09T02:06:47.668Z,3.76
2023-12-09T02:09:14.735Z,3.76
2023-12-09T02:11:41.364Z,3.78
2023-12-09T02:14:33.926Z,3.78
2023-12-09T02:17:16.955Z,3.76
2023-12-09T02:19:43.832Z,3.75
2023-12-09T02:22:10.919Z,3.74
2023-12-09T02:24:37.812Z,3.73
2023-12-09T02:27:11.167Z,3.74
2023-12-09T02:30:08.674Z,3.73
2023-12-09T02:32:36.281Z,3.74
2023-12-09T02:35:04.526Z,3.65
2023-12-09T02:37:32.981Z,3.56
2023-12-09T02:40:01.867Z,3.52
2023-12-09T02:42:28.946Z,3.54
2023-12-09T02:44:57.429Z,3.56
2023-12-09T02:47:24.062Z,3.56
2023-12-09T02:49:50.895Z,3.59
2023-12-09T02:52:17.634Z,3.58
2023-12-09T02:54:44.242Z,3.58
2023-12-09T02:57:10.905Z,3.48
2023-12-09T02:59:37.608Z,3.49
2023-12-09T03:02:04.387Z,3.53
2023-12-09T03:04:32.383Z,3.50
2023-12-09T03:06:59.258Z,3.51
2023-12-09T03:09:25.884Z,3.55
2023-12-09T03:11:52.521Z,3.54
2023-12-09T03:14:19.232Z,3.52
2023-12-09T03:16:45.771Z,3.54
2023-12-09T03:19:12.459Z,3.53
2023-12-09T03:21:39.121Z,3.52
2023-12-09T03:24:05.948Z,3.41
2023-12-09T03:26:32.594Z,3.41
2023-12-09T03:28:59.107Z,3.42
2023-12-09T03:31:25.627Z,3.46
2023-12-09T03:33:52.365Z,3.50
2023-12-09T03:36:19.136Z,3.52
2023-12-09T03:38:45.810Z,3.55
2023-12-09T03:41:12.398Z,3.52
2023-12-09T03:43:39.333Z,3.53
2023-12-09T03:46:06.089Z,3.51
2023-12-09T03:48:33.199Z,3.51
2023-12-09T03:50:59.958Z,3.49
2023-12-09T03:53:26.599Z,3.51
2023-12-09T03:55:53.218Z,3.45
2023-12-09T03:58:21.792Z,3.44
2023-12-09T04:00:48.602Z,3.45
2023-12-09T04:03:15.884Z,3.46
2023-12-09T04:05:42.747Z,3.49
2023-12-09T04:08:09.818Z,3.52
2023-12-09T04:10:36.401Z,3.34
2023-12-09T04:13:02.973Z,3.32
2023-12-09T04:15:29.600Z,3.32
2023-12-09T04:17:56.272Z,3.36
2023-12-09T04:20:22.983Z,3.33
2023-12-09T04:22:49.631Z,3.30
2023-12-09T04:25:16.299Z,3.31
2023-12-09T04:27:43.131Z,3.32
2023-12-09T04:30:10.515Z,3.36
2023-12-09T04:32:37.145Z,3.39
2023-12-09T04:35:04.694Z,3.38
2023-12-09T04:37:31.347Z,3.38
2023-12-09T04:39:57.951Z,3.41
2023-12-09T04:42:24.977Z,3.38
2023-12-09T04:44:51.814Z,3.29
2023-12-09T04:47:18.659Z,3.25
2023-12-09T04:49:45.330Z,3.20
2023-12-09T04:52:12.033Z,3.08
2023-12-09T04:54:38.644Z,3.08
2023-12-09T04:57:05.688Z,3.09
2023-12-09T04:59:32.356Z,3.12
2023-12-09T05:01:58.957Z,3.18
2023-12-09T05:04:25.695Z,3.22
2023-12-09T05:06:52.410Z,3.23
2023-12-09T05:09:19.071Z,3.10
2023-12-09T05:11:45.627Z,2.99
2023-12-09T05:14:12.262Z,3.00
2023-12-09T05:16:38.845Z,3.04
2023-12-09T05:19:06.910Z,3.08
2023-12-09T05:21:35.849Z,3.10
2023-12-09T05:24:04.731Z,3.13
2023-12-09T05:26:31.629Z,3.14
2023-12-09T05:28:58.596Z,3.15
2023-12-09T05:31:25.430Z,3.09
2023-12-09T05:33:52.308Z,3.03
2023-12-09T05:36:18.972Z,3.04
2023-12-09T05:38:45.594Z,3.08
2023-12-09T05:41:12.476Z,3.11
2023-12-09T05:43:39.825Z,3.16
2023-12-09T05:46:06.633Z,3.21
2023-12-09T05:48:34.817Z,3.26
2023-12-09T05:51:02.318Z,3.30
2023-12-09T05:53:28.949Z,3.24
2023-12-09T05:55:55.492Z,3.26
2023-12-09T05:58:22.091Z,3.29
2023-12-09T06:00:48.989Z,3.34
2023-12-09T06:03:15.773Z,3.35
2023-12-09T06:05:42.453Z,3.38
2023-12-09T06:08:09.176Z,3.35
2023-12-09T06:10:35.714Z,3.32
2023-12-09T06:13:02.376Z,3.26
2023-12-09T06:15:28.924Z,3.27
2023-12-09T06:17:55.630Z,3.32
2023-12-09T06:20:22.610Z,3.36
2023-12-09T06:22:49.332Z,3.39
2023-12-09T06:25:15.967Z,3.42
2023-12-09T06:27:42.619Z,3.46
2023-12-09T06:30:11.059Z,3.47
2023-12-09T06:32:37.792Z,3.49
2023-12-09T06:35:04.766Z,3.42
2023-12-09T06:37:31.395Z,3.38
2023-12-09T06:39:57.956Z,3.39
2023-12-09T06:42:24.772Z,3.41
2023-12-09T06:44:51.526Z,3.42
2023-12-09T06:47:18.165Z,3.47
2023-12-09T06:49:44.856Z,3.52
2023-12-09T06:52:11.557Z,3.56
2023-12-09T06:54:38.562Z,3.61
2023-12-09T06:57:05.539Z,3.62
2023-12-09T06:59:32.141Z,3.67
2023-12-09T07:01:59.071Z,3.63
2023-12-09T07:04:25.869Z,3.65
2023-12-09T07:06:52.605Z,3.63
2023-12-09T07:09:19.270Z,3.63
2023-12-09T07:11:45.909Z,3.64
2023-12-09T07:14:14.879Z,3.65
2023-12-09T07:16:41.545Z,3.69
2023-12-09T07:19:08.380Z,3.73
2023-12-09T07:21:35.245Z,3.77
2023-12-09T07:24:02.330Z,3.81
2023-12-09T07:26:29.336Z,3.82
2023-12-09T07:28:56.029Z,3.84
2023-12-09T07:31:22.686Z,3.84
2023-12-09T07:33:49.772Z,3.84
2023-12-09T07:36:16.515Z,3.86
2023-12-09T07:38:43.243Z,3.90
2023-12-09T07:41:09.838Z,3.95
2023-12-09T07:43:39.454Z,4.02
2023-12-09T07:46:07.877Z,4.09
2023-12-09T07:48:34.713Z,4.13
2023-12-09T07:51:01.477Z,4.16
2023-12-09T07:53:28.039Z,4.22
2023-12-09T07:55:54.596Z,4.25
2023-12-09T07:58:21.449Z,4.28
2023-12-09T08:00:48.796Z,4.33
2023-12-09T08:03:15.526Z,4.38
2023-12-09T08:05:44.309Z,4.40
2023-12-09T08:08:12.288Z,4.36
2023-12-09T08:10:38.864Z,4.32
2023-12-09T08:13:06.223Z,4.10
2023-12-09T08:15:32.807Z,4.12
2023-12-09T08:17:59.598Z,3.99
2023-12-09T08:20:26.360Z,4.04
2023-12-09T08:22:53.166Z,4.03
2023-12-09T08:25:19.742Z,3.86
2023-12-09T08:27:46.303Z,3.71
2023-12-09T08:30:13.577Z,3.55
2023-12-09T08:32:42.492Z,3.48
2023-12-09T08:35:10.895Z,3.39
2023-12-09T08:37:41.559Z,3.27
2023-12-09T08:40:12.611Z,3.27
2023-12-09T08:42:43.635Z,3.24
2023-12-09T08:45:17.306Z,3.35
2023-12-09T08:47:45.693Z,3.44
2023-12-09T08:50:22.056Z,3.52
2023-12-09T08:52:52.342Z,3.55
2023-12-09T08:55:19.347Z,3.46
2023-12-09T08:57:46.806Z,3.32
2023-12-09T09:00:15.440Z,3.47
2023-12-09T09:02:42.244Z,3.55
2023-12-09T09:05:09.811Z,3.56
2023-12-09T09:07:39.983Z,3.58
2023-12-09T09:10:08.018Z,3.60
2023-12-09T09:12:34.670Z,3.65
2023-12-09T09:15:04.610Z,3.71
2023-12-09T09:17:33.614Z,3.83
2023-12-09T09:20:00.326Z,3.96
2023-12-09T09:22:27.209Z,4.06
2023-12-09T09:24:54.014Z,4.13
2023-12-09T09:27:20.665Z,4.23
2023-12-09T09:29:47.245Z,4.34
2023-12-09T09:32:13.833Z,4.45
2023-12-09T09:34:42.535Z,4.54
2023-12-09T09:37:09.755Z,4.64
2023-12-09T09:39:36.577Z,4.71
2023-12-09T09:42:27.046Z,4.77
2023-12-09T09:45:09.695Z,4.76
2023-12-09T09:47:41.244Z,4.79
2023-12-09T09:50:11.929Z,4.73
2023-12-09T09:52:41.794Z,4.74
2023-12-09T09:55:10.025Z,4.64
2023-12-09T09:57:36.945Z,4.06
2023-12-09T10:00:13.805Z,3.95
2023-12-09T10:02:46.572Z,3.59
2023-12-09T10:05:15.688Z,3.52
2023-12-09T10:07:43.232Z,3.53
2023-12-09T10:10:10.746Z,3.65
2023-12-09T10:12:37.885Z,3.57
2023-12-09T10:15:05.777Z,3.67
2023-12-09T10:17:32.913Z,3.75
2023-12-09T10:20:00.200Z,3.60
2023-12-09T10:22:28.303Z,3.66
2023-12-09T10:24:55.973Z,3.55
2023-12-09T10:27:23.962Z,3.36
2023-12-09T10:29:55.433Z,3.39
2023-12-09T10:32:22.121Z,3.27
2023-12-09T10:34:50.248Z,3.37
2023-12-09T10:37:18.188Z,3.37
2023-12-09T10:39:46.105Z,3.31
2023-12-09T10:42:13.205Z,3.13
2023-12-09T10:44:40.677Z,3.02
2023-12-09T10:47:08.281Z,3.21
2023-12-09T10:49:35.424Z,3.37
2023-12-09T10:52:02.509Z,3.30
2023-12-09T10:54:29.184Z,3.33
2023-12-09T10:56:55.818Z,3.36
2023-12-09T10:59:22.493Z,3.26
2023-12-09T11:01:49.468Z,3.30
2023-12-09T11:04:16.542Z,3.24
2023-12-09T11:06:46.215Z,3.24
2023-12-09T11:09:15.822Z,3.36
2023-12-09T11:11:43.218Z,3.54
2023-12-09T11:14:13.012Z,3.57
2023-12-09T11:16:43.876Z,3.78
2023-12-09T11:19:20.634Z,3.94
2023-12-09T11:21:48.094Z,3.65
2023-12-09T11:24:16.861Z,3.71
2023-12-09T11:26:48.316Z,3.71
2023-12-09T11:29:18.956Z,3.74
2023-12-09T11:31:47.771Z,3.65
2023-12-09T11:34:16.503Z,3.70
2023-12-09T11:36:44.662Z,3.75
2023-12-09T11:39:20.031Z,3.68
2023-12-09T11:41:48.419Z,3.80
2023-12-09T11:44:15.531Z,3.92
2023-12-09T11:46:42.699Z,3.91
2023-12-09T11:49:09.977Z,3.94
2023-12-09T11:51:38.395Z,3.96
2023-12-09T11:54:08.563Z,3.85
2023-12-09T11:56:35.984Z,3.80
2023-12-09T11:59:02.586Z,3.88
2023-12-09T12:01:30.795Z,3.93
2023-12-09T12:03:57.719Z,3.98
2023-12-09T12:06:24.915Z,4.01
2023-12-09T12:08:53.251Z,4.12
2023-12-09T12:11:22.789Z,4.29
2023-12-09T12:13:49.852Z,4.35
2023-12-09T12:16:17.284Z,4.31
2023-12-09T12:18:45.828Z,4.36
2023-12-09T12:21:12.674Z,4.39
2023-12-09T12:23:40.776Z,4.38
2023-12-09T12:26:09.145Z,4.33
2023-12-09T12:28:35.768Z,4.21
2023-12-09T12:31:02.461Z,4.11
2023-12-09T12:33:33.393Z,4.15
2023-12-09T12:36:02.272Z,4.03
2023-12-09T12:38:29.286Z,3.96
2023-12-09T12:40:57.485Z,3.85
2023-12-09T12:43:25.380Z,3.78
2023-12-09T12:45:53.811Z,3.90
2023-12-09T12:48:21.435Z,4.00
2023-12-09T12:50:51.005Z,4.02
2023-12-09T12:53:19.221Z,4.00
2023-12-09T12:55:46.449Z,4.07
2023-12-09T12:58:13.167Z,3.87
2023-12-09T13:00:40.594Z,3.83
2023-12-09T13:03:08.615Z,3.74
2023-12-09T13:05:35.961Z,3.68
2023-12-09T13:08:02.814Z,3.77
2023-12-09T13:10:29.524Z,3.86
2023-12-09T13:12:56.313Z,3.98
2023-12-09T13:15:24.026Z,4.07
2023-12-09T13:17:50.914Z,3.87
2023-12-09T13:20:17.874Z,3.40
2023-12-09T13:22:47.078Z,3.36
2023-12-09T13:25:15.403Z,2.96
2023-12-09T13:27:43.680Z,2.99
2023-12-09T13:30:10.893Z,2.62
2023-12-09T13:32:38.665Z,2.60
2023-12-09T13:35:07.103Z,2.46
2023-12-09T13:37:34.669Z,2.47
2023-12-09T13:40:02.007Z,2.46
2023-12-09T13:42:29.455Z,2.54
2023-12-09T13:44:56.365Z,2.35
2023-12-09T13:47:23.888Z,2.23
2023-12-09T13:49:50.789Z,2.11
2023-12-09T13:52:18.232Z,1.98
2023-12-09T13:54:45.318Z,1.95
2023-12-09T13:57:12.074Z,2.03
2023-12-09T13:59:38.805Z,2.09
2023-12-09T14:02:07.715Z,2.07
2023-12-09T14:04:35.228Z,1.81
2023-12-09T14:07:02.116Z,1.81
2023-12-09T14:09:28.921Z,1.94
2023-12-09T14:11:55.600Z,1.94
2023-12-09T14:14:22.423Z,1.84
2023-12-09T14:16:49.344Z,1.75
2023-12-09T14:19:16.427Z,1.87
2023-12-09T14:21:43.131Z,1.93
2023-12-09T14:24:09.993Z,2.04
2023-12-09T14:26:37.040Z,1.97
2023-12-09T14:29:03.701Z,1.87
2023-12-09T14:31:30.368Z,1.88
2023-12-09T14:33:57.718Z,1.95
2023-12-09T14:36:24.590Z,2.04
2023-12-09T14:38:51.776Z,2.05
2023-12-09T14:41:18.426Z,1.82
2023-12-09T14:43:47.118Z,2.00
2023-12-09T14:46:15.172Z,2.10
2023-12-09T14:48:42.957Z,2.00
2023-12-09T14:51:10.163Z,2.02
2023-12-09T14:53:36.821Z,1.88
2023-12-09T14:56:03.769Z,1.73
2023-12-09T14:58:30.938Z,1.66
2023-12-09T15:00:57.820Z,1.66
2023-12-09T15:03:24.723Z,1.63
2023-12-09T15:05:51.381Z,1.72
2023-12-09T15:08:17.984Z,1.81
2023-12-09T15:10:44.678Z,1.94
2023-12-09T15:13:11.250Z,2.00
2023-12-09T15:15:37.918Z,1.95
2023-12-09T15:18:05.804Z,2.02
2023-12-09T15:20:33.068Z,2.07
2023-12-09T15:22:59.889Z,2.00
2023-12-09T15:25:26.710Z,2.04
2023-12-09T15:27:54.187Z,2.04
2023-12-09T15:30:21.426Z,1.93
2023-12-09T15:32:48.765Z,1.93
2023-12-09T15:35:15.673Z,1.88
2023-12-09T15:37:43.597Z,1.83
2023-12-09T15:40:12.208Z,1.71
2023-12-09T15:42:39.226Z,1.86
2023-12-09T15:45:06.684Z,1.92
2023-12-09T15:47:33.608Z,2.04
2023-12-09T15:50:00.527Z,1.97
2023-12-09T15:52:27.455Z,2.09
2023-12-09T15:54:54.617Z,2.04
2023-12-09T15:57:21.738Z,2.15
2023-12-09T15:59:49.382Z,2.04
2023-12-09T16:02:16.097Z,2.16
2023-12-09T16:04:42.889Z,2.15
2023-12-09T16:07:09.504Z,2.26
2023-12-09T16:09:40.969Z,2.36
2023-12-09T16:12:11.596Z,2.28
2023-12-09T16:14:38.385Z,2.24
2023-12-09T16:17:05.268Z,2.14
2023-12-09T16:19:32.180Z,2.17
2023-12-09T16:21:58.809Z,2.22
2023-12-09T16:24:28.680Z,2.33
2023-12-09T16:26:59.422Z,2.47
2023-12-09T16:29:27.374Z,2.61
2023-12-09T16:31:54.079Z,2.62
2023-12-09T16:34:20.851Z,2.61
2023-12-09T16:36:48.422Z,2.66
2023-12-09T16:39:15.248Z,2.69
2023-12-09T16:41:41.898Z,2.63
2023-12-09T16:44:11.514Z,2.63
2023-12-09T16:46:39.320Z,2.52
2023-12-09T16:49:09.062Z,2.47
2023-12-09T16:51:36.019Z,2.49
2023-12-09T16:54:03.223Z,2.15
2023-12-09T16:56:30.086Z,2.26
2023-12-09T16:58:57.929Z,2.28
2023-12-09T17:01:24.919Z,2.26
2023-12-09T17:03:51.754Z,2.20
2023-12-09T17:06:18.551Z,2.12
2023-12-09T17:08:45.515Z,2.14
2023-12-09T17:11:12.164Z,2.18
2023-12-09T17:13:38.908Z,1.96
2023-12-09T17:16:05.834Z,2.05
2023-12-09T17:18:32.560Z,2.08
2023-12-09T17:20:59.291Z,1.82
2023-12-09T17:23:26.013Z,1.92
2023-12-09T17:25:52.645Z,2.05
2023-12-09T17:28:19.952Z,2.19
2023-12-09T17:30:48.250Z,2.31
2023-12-09T17:33:15.095Z,2.46
2023-12-09T17:35:41.919Z,2.49
2023-12-09T17:38:08.682Z,2.49
2023-12-09T17:40:35.383Z,2.58
2023-12-09T17:43:02.059Z,2.60
2023-12-09T17:45:28.760Z,2.47
2023-12-09T17:47:55.423Z,2.20
2023-12-09T17:50:22.727Z,2.17
2023-12-09T17:52:49.530Z,2.04
2023-12-09T17:55:16.162Z,2.00
2023-12-09T17:57:42.912Z,1.88
2023-12-09T18:00:11.548Z,1.94
2023-12-09T18:02:38.703Z,1.95
2023-12-09T18:05:05.810Z,2.05
2023-12-09T18:07:32.661Z,1.96
2023-12-09T18:09:59.536Z,1.94
2023-12-09T18:12:26.492Z,1.96
2023-12-09T18:14:53.266Z,1.95
2023-12-09T18:17:20.245Z,2.09
2023-12-09T18:19:47.858Z,2.21
2023-12-09T18:22:14.672Z,2.32
2023-12-09T18:24:42.041Z,2.35
2023-12-09T18:27:08.857Z,2.28
2023-12-09T18:29:35.505Z,2.26
2023-12-09T18:32:02.093Z,2.29
2023-12-09T18:34:28.851Z,2.19
2023-12-09T18:36:55.481Z,1.94
2023-12-09T18:39:22.658Z,1.87
2023-12-09T18:41:49.295Z,1.79
2023-12-09T18:44:16.532Z,1.82
2023-12-09T18:46:43.346Z,1.66
2023-12-09T18:49:11.108Z,1.62
2023-12-09T18:51:37.870Z,1.53
2023-12-09T18:54:04.693Z,1.40
2023-12-09T18:56:31.874Z,1.23
2023-12-09T18:58:58.505Z,1.24
2023-12-09T19:01:25.368Z,1.27
2023-12-09T19:03:52.813Z,1.01
2023-12-09T19:06:20.261Z,0.84
2023-12-09T19:08:46.887Z,0.82
2023-12-09T19:11:13.520Z,0.93
2023-12-09T19:13:40.127Z,0.80
2023-12-09T19:16:07.901Z,0.69
2023-12-09T19:18:34.782Z,0.76
2023-12-09T19:21:02.498Z,0.67
2023-12-09T19:23:29.128Z,0.85
2023-12-09T19:25:55.984Z,0.92
2023-12-09T19:28:22.596Z,0.81
2023-12-09T19:30:49.385Z,0.82
2023-12-09T19:33:16.211Z,0.88
2023-12-09T19:35:43.070Z,0.89
2023-12-09T19:38:09.707Z,0.98
2023-12-09T19:40:36.314Z,1.19
2023-12-09T19:43:03.049Z,1.34
2023-12-09T19:45:29.699Z,1.42
2023-12-09T19:47:57.412Z,1.09
2023-12-09T19:50:25.112Z,1.09
2023-12-09T19:52:52.252Z,1.05
2023-12-09T19:55:18.936Z,1.16
2023-12-09T19:57:45.833Z,1.13
2023-12-09T20:00:15.983Z,1.08
2023-12-09T20:02:45.462Z,1.08
2023-12-09T20:05:12.506Z,0.99
2023-12-09T20:07:39.345Z,0.84
2023-12-09T20:10:06.642Z,0.70
2023-12-09T20:12:33.286Z,0.72
2023-12-09T20:15:00.073Z,0.88
2023-12-09T20:17:26.762Z,0.85
2023-12-09T20:19:53.551Z,0.70
2023-12-09T20:22:21.476Z,0.84
2023-12-09T20:24:48.270Z,0.91
2023-12-09T20:27:15.043Z,0.80
2023-12-09T20:29:42.025Z,0.79
2023-12-09T20:32:08.630Z,0.88
2023-12-09T20:34:35.427Z,0.98
2023-12-09T20:37:02.565Z,0.92
2023-12-09T20:39:29.348Z,0.92
2023-12-09T20:41:56.011Z,0.86
2023-12-09T20:44:22.610Z,0.57
2023-12-09T20:46:50.267Z,0.72
2023-12-09T20:49:18.616Z,0.75
2023-12-09T20:51:45.991Z,0.60
2023-12-09T20:54:12.980Z,0.52
2023-12-09T20:56:39.894Z,0.57
2023-12-09T20:59:08.251Z,0.68
2023-12-09T21:01:42.872Z,0.74
2023-12-09T21:04:09.568Z,0.35
2023-12-09T21:06:36.908Z,0.48
2023-12-09T21:09:05.351Z,0.48
2023-12-09T21:11:34.940Z,0.51
2023-12-09T21:14:02.272Z,0.53
2023-12-09T21:16:28.868Z,0.58
2023-12-09T21:18:56.185Z,0.34
2023-12-09T21:21:23.107Z,0.35
2023-12-09T21:23:50.243Z,0.38
2023-12-09T21:26:17.188Z,0.43
2023-12-09T21:28:43.780Z,0.32
2023-12-09T21:31:14.100Z,0.32
2023-12-09T21:33:41.318Z,0.35
2023-12-09T21:36:13.031Z,0.33
2023-12-09T21:38:46.162Z,0.40
2023-12-09T21:41:22.622Z,0.58
2023-12-09T21:43:50.261Z,0.75
2023-12-09T21:46:24.049Z,0.88
2023-12-09T21:48:52.370Z,0.81
2023-12-09T21:51:20.044Z,0.96
2023-12-09T21:53:46.725Z,1.12
2023-12-09T21:56:24.414Z,0.98
2023-12-09T21:58:51.849Z,0.77
2023-12-09T22:01:19.610Z,0.73
2023-12-09T22:03:46.823Z,0.58
2023-12-09T22:06:14.262Z,0.58
2023-12-09T22:08:42.601Z,0.53
2023-12-09T22:11:10.294Z,0.32
2023-12-09T22:13:37.262Z,0.35
2023-12-09T22:16:04.081Z,0.28
2023-12-09T22:18:30.849Z,0.30
2023-12-09T22:20:59.460Z,0.29
2023-12-09T22:23:26.137Z,0.32
2023-12-09T22:25:52.781Z,0.38
2023-12-09T22:28:19.407Z,0.31
2023-12-09T22:30:46.388Z,0.47
2023-12-09T22:33:13.142Z,0.50
2023-12-09T22:35:39.861Z,0.51
2023-12-09T22:38:06.435Z,0.67
2023-12-09T22:40:34.682Z,0.58
2023-12-09T22:43:01.719Z,0.67
2023-12-09T22:45:28.322Z,0.67
2023-12-09T22:47:55.149Z,0.68
2023-12-09T22:50:22.824Z,0.76
2023-12-09T22:52:49.438Z,0.86
2023-12-09T22:55:16.106Z,0.98
2023-12-09T22:57:42.916Z,0.82
2023-12-09T23:00:11.300Z,0.54
2023-12-09T23:02:38.016Z,0.51
2023-12-09T23:05:04.928Z,0.51
2023-12-09T23:07:31.544Z,0.51
2023-12-09T23:09:58.187Z,0.58
2023-12-09T23:12:24.801Z,0.62
2023-12-09T23:14:51.546Z,0.69
2023-12-09T23:17:18.175Z,0.83
2023-12-09T23:19:46.296Z,0.86
2023-12-09T23:22:12.946Z,0.79
2023-12-09T23:24:40.292Z,0.84
2023-12-09T23:27:07.169Z,0.82
2023-12-09T23:29:33.920Z,0.85
2023-12-09T23:32:01.054Z,0.93
2023-12-09T23:34:27.833Z,0.86
2023-12-09T23:36:56.388Z,0.82
2023-12-09T23:39:23.258Z,0.82
2023-12-09T23:41:50.714Z,0.96
2023-12-09T23:44:17.295Z,1.11
2023-12-09T23:46:44.953Z,1.18
2023-12-09T23:49:11.606Z,1.25
2023-12-09T23:51:38.553Z,1.11
2023-12-09T23:54:05.327Z,1.03
2023-12-09T23:56:31.980Z,1.09
2023-12-09T23:58:59.321Z,1.00
